createdAt,value
2023-01-31T00:01:15.135Z,25.83
2023-01-31T00:03:45.182Z,14.63
2023-01-31T00:06:18.069Z,18.43
2023-01-31T00:08:46.964Z,14.13
2023-01-31T00:11:16.270Z,12.90
2023-01-31T00:13:44.816Z,23.57
2023-01-31T00:16:13.440Z,24.70
2023-01-31T00:18:41.704Z,18.10
2023-01-31T00:21:12.475Z,18.47
2023-01-31T00:23:41.257Z,17.50
2023-01-31T00:26:10.589Z,15.53
2023-01-31T00:28:39.343Z,16.07
2023-01-31T00:31:07.671Z,13.53
2023-01-31T00:33:36.040Z,13.93
2023-01-31T00:36:05.603Z,20.40
2023-01-31T00:38:35.243Z,15.57
2023-01-31T00:41:04.059Z,18.57
2023-01-31T00:43:32.691Z,8.67
2023-01-31T00:46:00.915Z,16.07
2023-01-31T00:48:29.362Z,17.47
2023-01-31T00:50:57.565Z,10.90
2023-01-31T00:53:25.836Z,14.17
2023-01-31T00:55:56.681Z,17.87
2023-01-31T00:58:24.863Z,20.47
2023-01-31T01:00:53.051Z,17.67
2023-01-31T01:03:21.204Z,13.57
2023-01-31T01:05:49.360Z,16.53
2023-01-31T01:08:17.712Z,17.40
2023-01-31T01:10:45.847Z,17.50
2023-01-31T01:13:15.339Z,19.37
2023-01-31T01:15:43.497Z,14.17
2023-01-31T01:18:11.634Z,15.20
2023-01-31T01:20:39.842Z,19.00
2023-01-31T01:23:08.005Z,20.00
2023-01-31T01:25:43.349Z,18.07
2023-01-31T01:28:11.484Z,16.00
2023-01-31T01:30:41.127Z,16.23
2023-01-31T01:33:09.475Z,15.63
2023-01-31T01:35:37.634Z,16.63
2023-01-31T01:38:05.765Z,21.30
2023-01-31T01:40:37.017Z,23.17
2023-01-31T01:43:05.289Z,13.37
2023-01-31T01:45:33.591Z,22.83
2023-01-31T01:48:05.418Z,21.30
2023-01-31T01:50:36.156Z,20.53
2023-01-31T01:53:05.405Z,13.87
2023-01-31T01:55:36.205Z,20.57
2023-01-31T01:58:06.288Z,21.90
2023-01-31T02:00:35.977Z,22.23
2023-01-31T02:03:06.822Z,22.00
2023-01-31T02:05:36.399Z,19.80
2023-01-31T02:08:04.952Z,17.83
2023-01-31T02:10:34.268Z,23.87
2023-01-31T02:13:02.939Z,19.00
2023-01-31T02:15:31.560Z,22.23
2023-01-31T02:17:59.741Z,18.47
2023-01-31T02:20:42.788Z,17.63
2023-01-31T02:23:24.834Z,18.53
2023-01-31T02:26:11.019Z,26.20
2023-01-31T02:28:47.947Z,19.03
2023-01-31T02:31:33.792Z,21.03
2023-01-31T02:34:07.147Z,22.03
2023-01-31T02:36:40.066Z,24.90
2023-01-31T02:39:13.723Z,19.97
2023-01-31T02:41:45.755Z,23.13
2023-01-31T02:44:33.177Z,20.10
2023-01-31T02:47:02.599Z,23.87
2023-01-31T02:49:37.844Z,25.13
2023-01-31T02:52:19.300Z,27.20
2023-01-31T02:55:12.202Z,22.97
2023-01-31T02:57:40.467Z,24.97
2023-01-31T03:00:10.265Z,24.73
2023-01-31T03:02:38.583Z,20.90
2023-01-31T03:05:08.487Z,22.07
2023-01-31T03:07:38.892Z,32.50
2023-01-31T03:10:14.990Z,32.47
2023-01-31T03:12:48.886Z,21.53
2023-01-31T03:15:50.157Z,33.90
2023-01-31T03:18:18.840Z,26.60
2023-01-31T03:20:51.816Z,33.83
2023-01-31T03:23:21.581Z,29.83
2023-01-31T03:25:50.071Z,28.20
2023-01-31T03:28:20.039Z,30.80
2023-01-31T03:30:50.346Z,31.47
2023-01-31T03:33:21.283Z,31.80
2023-01-31T03:35:53.471Z,31.77
2023-01-31T03:38:23.642Z,32.47
2023-01-31T03:40:56.828Z,28.00
2023-01-31T03:43:27.792Z,30.40
2023-01-31T03:45:58.828Z,34.17
2023-01-31T03:48:30.015Z,23.00
2023-01-31T03:51:01.586Z,27.70
2023-01-31T03:53:32.554Z,24.60
2023-01-31T03:56:02.577Z,23.43
2023-01-31T03:58:32.413Z,25.77
2023-01-31T04:01:03.377Z,33.27
2023-01-31T04:03:33.518Z,29.57
2023-01-31T04:06:03.178Z,22.50
2023-01-31T04:08:32.659Z,26.97
2023-01-31T04:11:01.343Z,26.07
2023-01-31T04:13:29.482Z,26.73
2023-01-31T04:15:57.640Z,25.20
2023-01-31T04:18:25.774Z,30.07
2023-01-31T04:20:53.958Z,27.87
2023-01-31T04:23:24.893Z,31.40
2023-01-31T04:25:54.333Z,21.90
2023-01-31T04:28:22.496Z,22.87
2023-01-31T04:30:54.219Z,30.50
2023-01-31T04:33:22.393Z,28.80
2023-01-31T04:35:52.105Z,23.07
2023-01-31T04:38:20.260Z,25.53
2023-01-31T04:40:49.764Z,19.90
2023-01-31T04:43:17.950Z,22.93
2023-01-31T04:45:46.163Z,19.80
2023-01-31T04:48:14.322Z,18.40
2023-01-31T04:50:42.478Z,26.43
2023-01-31T04:53:10.685Z,22.73
2023-01-31T04:55:38.902Z,20.50
2023-01-31T04:58:08.758Z,27.53
2023-01-31T05:00:37.091Z,24.10
2023-01-31T05:03:05.978Z,23.53
2023-01-31T05:05:36.319Z,19.83
2023-01-31T05:08:04.777Z,21.20
2023-01-31T05:10:32.912Z,24.53
2023-01-31T05:13:01.088Z,21.67
2023-01-31T05:15:30.612Z,17.27
2023-01-31T05:18:02.729Z,26.93
2023-01-31T05:20:31.932Z,22.87
2023-01-31T05:23:00.319Z,13.67
2023-01-31T05:25:28.486Z,22.10
2023-01-31T05:27:56.643Z,19.27
2023-01-31T05:30:25.130Z,18.87
2023-01-31T05:32:54.781Z,18.50
2023-01-31T05:35:23.347Z,18.73
2023-01-31T05:37:51.640Z,21.50
2023-01-31T05:40:19.853Z,18.93
2023-01-31T05:42:51.732Z,18.77
2023-01-31T05:45:20.244Z,16.27
2023-01-31T05:47:48.655Z,19.13
2023-01-31T05:50:18.458Z,22.33
2023-01-31T05:52:51.313Z,20.03
2023-01-31T05:55:19.859Z,17.33
2023-01-31T05:57:48.243Z,18.60
2023-01-31T06:00:17.029Z,16.30
2023-01-31T06:02:45.498Z,29.27
2023-01-31T06:05:13.873Z,12.80
2023-01-31T06:07:43.418Z,21.70
2023-01-31T06:10:12.675Z,19.30
2023-01-31T06:12:41.363Z,14.20
2023-01-31T06:15:09.900Z,15.63
2023-01-31T06:17:38.186Z,14.73
2023-01-31T06:20:07.260Z,11.57
2023-01-31T06:22:35.425Z,24.50
2023-01-31T06:25:05.416Z,11.13
2023-01-31T06:27:34.059Z,15.50
2023-01-31T06:30:02.641Z,19.43
2023-01-31T06:32:30.796Z,17.03
2023-01-31T06:34:58.967Z,18.50
2023-01-31T06:37:27.114Z,13.77
2023-01-31T06:39:55.599Z,9.43
2023-01-31T06:42:25.115Z,19.60
2023-01-31T06:44:53.267Z,18.17
2023-01-31T06:47:21.426Z,18.00
2023-01-31T06:49:49.561Z,18.10
2023-01-31T06:52:17.698Z,17.40
2023-01-31T06:54:45.886Z,15.10
2023-01-31T06:57:14.024Z,18.93
2023-01-31T06:59:43.503Z,15.00
2023-01-31T07:02:11.844Z,14.97
2023-01-31T07:04:40.013Z,13.97
2023-01-31T07:07:08.231Z,11.57
2023-01-31T07:09:36.434Z,17.00
2023-01-31T07:12:04.969Z,12.43
2023-01-31T07:14:33.135Z,16.30
2023-01-31T07:17:02.620Z,25.50
2023-01-31T07:19:31.145Z,14.70
2023-01-31T07:21:59.353Z,16.87
2023-01-31T07:24:27.558Z,17.83
2023-01-31T07:26:55.898Z,15.50
2023-01-31T07:29:24.768Z,14.93
2023-01-31T07:31:53.032Z,14.63
2023-01-31T07:34:23.070Z,14.53
2023-01-31T07:36:51.271Z,11.40
2023-01-31T07:39:19.675Z,12.63
2023-01-31T07:41:47.833Z,12.50
2023-01-31T07:44:16.026Z,18.33
2023-01-31T07:46:44.261Z,17.63
2023-01-31T07:49:13.092Z,17.93
2023-01-31T07:51:42.697Z,16.67
2023-01-31T07:54:11.065Z,14.47
2023-01-31T07:56:39.293Z,16.23
2023-01-31T07:59:07.515Z,15.00
2023-01-31T08:01:54.724Z,12.57
2023-01-31T08:04:23.078Z,13.27
2023-01-31T08:06:55.271Z,13.43
2023-01-31T08:09:23.457Z,17.73
2023-01-31T08:11:51.920Z,11.73
2023-01-31T08:14:23.619Z,17.27
2023-01-31T08:16:51.840Z,12.23
2023-01-31T08:19:20.023Z,16.90
2023-01-31T08:21:48.187Z,17.37
2023-01-31T08:24:17.703Z,12.33
2023-01-31T08:26:46.688Z,14.33
2023-01-31T08:29:14.949Z,19.10
2023-01-31T08:31:43.804Z,18.77
2023-01-31T08:34:12.134Z,20.17
2023-01-31T08:36:40.349Z,24.30
2023-01-31T08:39:08.624Z,12.77
2023-01-31T08:41:38.804Z,21.20
2023-01-31T08:44:07.349Z,16.13
2023-01-31T08:46:36.607Z,18.53
2023-01-31T08:49:05.988Z,13.47
2023-01-31T08:51:34.263Z,18.93
2023-01-31T08:54:02.427Z,14.27
2023-01-31T08:56:30.579Z,20.93
2023-01-31T08:59:00.149Z,13.37
2023-01-31T09:01:29.368Z,13.53
2023-01-31T09:03:58.093Z,15.30
2023-01-31T09:06:27.911Z,17.20
2023-01-31T09:08:57.514Z,14.67
2023-01-31T09:11:25.704Z,12.30
2023-01-31T09:13:53.884Z,18.60
2023-01-31T09:16:23.529Z,17.50
2023-01-31T09:18:51.703Z,13.23
2023-01-31T09:21:21.060Z,10.67
2023-01-31T09:23:50.001Z,18.93
2023-01-31T09:26:18.355Z,15.10
2023-01-31T09:28:46.644Z,11.17
2023-01-31T09:31:16.030Z,13.77
2023-01-31T09:33:45.715Z,14.97
2023-01-31T09:36:15.333Z,14.13
2023-01-31T09:38:43.520Z,18.07
2023-01-31T09:41:17.545Z,16.13
2023-01-31T09:43:47.627Z,15.33
2023-01-31T09:46:20.480Z,15.93
2023-01-31T09:48:52.151Z,13.37
2023-01-31T09:51:20.532Z,11.17
2023-01-31T09:53:49.150Z,12.03
2023-01-31T09:56:31.845Z,13.73
2023-01-31T09:59:04.897Z,13.17
2023-01-31T10:01:39.015Z,12.67
2023-01-31T10:04:18.660Z,18.07
2023-01-31T10:06:50.766Z,15.03
2023-01-31T10:09:22.819Z,16.63
2023-01-31T10:11:52.953Z,13.47
2023-01-31T10:14:23.865Z,16.20
2023-01-31T10:16:57.938Z,10.83
2023-01-31T10:19:30.592Z,14.13
2023-01-31T10:22:01.281Z,12.37
2023-01-31T10:24:32.793Z,10.97
2023-01-31T10:27:03.359Z,21.13
2023-01-31T10:29:34.533Z,15.27
2023-01-31T10:32:05.425Z,13.10
2023-01-31T10:34:39.145Z,14.60
2023-01-31T10:37:08.948Z,11.57
2023-01-31T10:39:39.325Z,16.43
2023-01-31T10:42:14.376Z,11.10
2023-01-31T10:44:51.587Z,21.47
2023-01-31T10:47:20.463Z,15.93
2023-01-31T10:49:50.559Z,9.53
2023-01-31T10:52:28.384Z,10.30
2023-01-31T10:55:01.607Z,11.97
2023-01-31T10:57:29.812Z,16.83
2023-01-31T10:59:58.193Z,14.67
2023-01-31T11:02:28.523Z,13.93
2023-01-31T11:04:58.809Z,15.27
2023-01-31T11:07:30.180Z,15.73
2023-01-31T11:09:58.519Z,12.80
2023-01-31T11:12:41.112Z,12.60
2023-01-31T11:15:15.910Z,17.07
2023-01-31T11:17:45.711Z,12.87
2023-01-31T11:20:23.905Z,11.03
2023-01-31T11:22:53.354Z,12.63
2023-01-31T11:25:23.045Z,14.93
2023-01-31T11:27:53.957Z,13.17
2023-01-31T11:30:24.236Z,12.63
2023-01-31T11:32:52.600Z,8.57
2023-01-31T11:35:26.964Z,10.50
2023-01-31T11:37:55.829Z,8.87
2023-01-31T11:40:27.912Z,9.93
2023-01-31T11:42:57.113Z,10.30
2023-01-31T11:45:27.534Z,8.27
2023-01-31T11:47:57.311Z,10.30
2023-01-31T11:50:28.560Z,8.63
2023-01-31T11:52:58.355Z,12.37
2023-01-31T11:55:27.066Z,11.23
2023-01-31T11:57:59.581Z,6.90
2023-01-31T12:00:28.917Z,8.80
2023-01-31T12:03:01.540Z,9.50
2023-01-31T12:05:39.189Z,11.50
2023-01-31T12:08:07.377Z,7.87
2023-01-31T12:10:37.769Z,12.70
2023-01-31T12:13:18.852Z,8.07
2023-01-31T12:15:50.269Z,8.10
2023-01-31T12:18:22.984Z,15.83
2023-01-31T12:20:55.711Z,10.20
2023-01-31T12:23:28.281Z,12.63
2023-01-31T12:26:05.581Z,7.73
2023-01-31T12:28:37.628Z,9.50
2023-01-31T12:31:12.269Z,8.57
2023-01-31T12:33:46.471Z,10.27
2023-01-31T12:36:24.094Z,9.07
2023-01-31T12:39:00.516Z,9.80
2023-01-31T12:41:33.465Z,9.67
2023-01-31T12:44:16.967Z,10.30
2023-01-31T12:47:08.576Z,10.13
2023-01-31T12:49:52.014Z,9.57
2023-01-31T12:52:25.822Z,9.90
2023-01-31T12:55:00.624Z,9.93
2023-01-31T12:57:37.014Z,10.00
2023-01-31T13:00:10.683Z,9.83
2023-01-31T13:02:42.434Z,11.00
2023-01-31T13:05:13.977Z,9.63
2023-01-31T13:07:46.659Z,10.87
2023-01-31T13:10:22.284Z,10.33
2023-01-31T13:12:50.738Z,12.37
2023-01-31T13:15:23.027Z,11.13
2023-01-31T13:17:54.137Z,11.60
2023-01-31T13:20:27.592Z,9.13
2023-01-31T13:22:59.391Z,9.83
2023-01-31T13:25:36.206Z,9.80
2023-01-31T13:28:07.973Z,7.00
2023-01-31T13:30:37.783Z,12.97
2023-01-31T13:33:10.386Z,8.67
2023-01-31T13:35:41.195Z,11.23
2023-01-31T13:38:15.013Z,14.90
2023-01-31T13:40:46.653Z,9.10
2023-01-31T13:43:15.930Z,12.77
2023-01-31T13:45:46.246Z,11.70
2023-01-31T13:48:20.276Z,11.70
2023-01-31T13:50:51.900Z,11.77
2023-01-31T13:53:23.404Z,13.07
2023-01-31T13:55:52.206Z,14.60
2023-01-31T13:58:21.778Z,13.07
2023-01-31T14:00:51.811Z,13.67
2023-01-31T14:03:20.923Z,11.13
2023-01-31T14:05:53.477Z,14.50
2023-01-31T14:08:54.517Z,15.17
2023-01-31T14:11:36.575Z,13.87
2023-01-31T14:14:19.918Z,10.93
2023-01-31T14:16:51.696Z,13.43
2023-01-31T14:19:32.802Z,10.37
2023-01-31T14:22:05.931Z,13.07
2023-01-31T14:25:07.735Z,8.80
2023-01-31T14:27:38.510Z,9.70
2023-01-31T14:30:11.940Z,9.00
2023-01-31T14:32:42.304Z,11.70
2023-01-31T14:35:20.217Z,12.43
2023-01-31T14:37:54.376Z,12.47
2023-01-31T14:40:26.985Z,9.30
2023-01-31T14:43:10.428Z,9.80
2023-01-31T14:45:44.287Z,8.57
2023-01-31T14:48:16.599Z,7.47
2023-01-31T14:50:57.508Z,10.73
2023-01-31T14:53:31.918Z,11.70
2023-01-31T14:56:15.155Z,8.70
2023-01-31T14:58:45.307Z,8.10
2023-01-31T15:01:15.907Z,11.10
2023-01-31T15:03:50.862Z,10.77
2023-01-31T15:06:23.561Z,11.30
2023-01-31T15:08:52.322Z,10.83
2023-01-31T15:11:42.278Z,8.93
2023-01-31T15:14:33.502Z,9.33
2023-01-31T15:17:05.676Z,12.80
2023-01-31T15:19:36.026Z,9.70
2023-01-31T15:22:06.482Z,9.13
2023-01-31T15:24:35.572Z,9.30
2023-01-31T15:27:05.746Z,8.87
2023-01-31T15:29:35.811Z,13.10
2023-01-31T15:32:10.525Z,9.00
2023-01-31T15:34:41.787Z,7.97
2023-01-31T15:37:11.486Z,10.77
2023-01-31T15:39:42.075Z,9.60
2023-01-31T15:42:22.584Z,10.73
2023-01-31T15:44:50.905Z,8.77
2023-01-31T15:47:23.893Z,14.07
2023-01-31T15:49:52.064Z,13.83
2023-01-31T15:52:21.160Z,11.63
2023-01-31T15:54:53.456Z,15.27
2023-01-31T15:57:22.403Z,12.63
2023-01-31T15:59:50.646Z,12.87
2023-01-31T16:02:22.955Z,10.83
2023-01-31T16:04:52.540Z,12.00
2023-01-31T16:07:21.564Z,10.93
2023-01-31T16:09:51.285Z,11.70
2023-01-31T16:12:19.646Z,11.80
2023-01-31T16:14:49.275Z,9.57
2023-01-31T16:17:18.884Z,13.43
2023-01-31T16:19:51.353Z,8.57
2023-01-31T16:22:26.850Z,11.87
2023-01-31T16:24:55.914Z,11.90
2023-01-31T16:27:24.193Z,10.27
2023-01-31T16:29:53.635Z,13.53
2023-01-31T16:32:23.399Z,9.60
2023-01-31T16:34:56.312Z,8.47
2023-01-31T16:37:36.545Z,13.53
2023-01-31T16:40:07.144Z,9.10
2023-01-31T16:42:38.666Z,10.57
2023-01-31T16:45:28.016Z,12.03
2023-01-31T16:47:56.484Z,11.67
2023-01-31T16:50:43.244Z,11.37
2023-01-31T16:53:18.685Z,10.60
2023-01-31T16:55:47.077Z,11.70
2023-01-31T16:58:35.225Z,11.97
2023-01-31T17:01:11.657Z,12.87
2023-01-31T17:03:39.828Z,11.57
2023-01-31T17:06:08.331Z,12.30
2023-01-31T17:08:41.980Z,13.33
2023-01-31T17:11:19.661Z,15.07
2023-01-31T17:13:51.820Z,12.13
2023-01-31T17:16:25.014Z,10.87
2023-01-31T17:18:53.657Z,13.37
2023-01-31T17:21:22.715Z,14.07
2023-01-31T17:23:52.647Z,14.73
2023-01-31T17:26:22.126Z,11.67
2023-01-31T17:29:00.849Z,15.90
2023-01-31T17:31:31.254Z,17.37
2023-01-31T17:33:59.631Z,17.27
2023-01-31T17:36:27.827Z,18.43
2023-01-31T17:38:57.353Z,15.53
2023-01-31T17:41:25.659Z,19.10
2023-01-31T17:43:53.820Z,19.80
2023-01-31T17:46:22.047Z,22.73
2023-01-31T17:48:50.212Z,20.77
2023-01-31T17:51:18.438Z,20.10
2023-01-31T17:53:50.604Z,19.20
2023-01-31T17:56:20.328Z,18.37
2023-01-31T17:58:49.291Z,19.03
2023-01-31T18:01:17.605Z,18.90
2023-01-31T18:03:45.769Z,23.27
2023-01-31T18:06:14.113Z,21.27
2023-01-31T18:08:42.272Z,28.67
2023-01-31T18:11:11.073Z,21.50
2023-01-31T18:13:40.665Z,28.03
2023-01-31T18:16:10.020Z,27.27
2023-01-31T18:18:40.344Z,26.20
2023-01-31T18:21:10.405Z,26.50
2023-01-31T18:23:38.622Z,26.30
2023-01-31T18:26:06.985Z,22.17
2023-01-31T18:28:35.365Z,24.87
2023-01-31T18:31:05.186Z,24.30
2023-01-31T18:33:34.344Z,20.77
2023-01-31T18:36:02.765Z,23.37
2023-01-31T18:38:31.466Z,21.60
2023-01-31T18:41:00.144Z,22.23
2023-01-31T18:43:28.400Z,18.60
2023-01-31T18:45:56.841Z,20.87
2023-01-31T18:48:26.407Z,24.53
2023-01-31T18:50:55.073Z,24.53
2023-01-31T18:56:06.924Z,22.23
2023-01-31T18:58:35.571Z,23.00
2023-01-31T19:01:07.729Z,25.40
2023-01-31T19:03:37.376Z,21.10
2023-01-31T19:06:06.690Z,23.00
2023-01-31T19:08:34.872Z,19.80
2023-01-31T19:11:07.276Z,14.37
2023-01-31T19:13:35.717Z,15.57
2023-01-31T19:16:04.544Z,16.57
2023-01-31T19:18:32.773Z,13.03
2023-01-31T19:21:02.734Z,14.03
2023-01-31T19:23:30.878Z,17.30
2023-01-31T19:25:59.034Z,14.93
2023-01-31T19:28:27.204Z,12.77
2023-01-31T19:30:55.408Z,9.97
2023-01-31T19:33:23.614Z,8.20
2023-01-31T19:35:51.781Z,10.20
2023-01-31T19:38:21.268Z,7.97
2023-01-31T19:40:51.593Z,10.03
2023-01-31T19:43:19.788Z,7.60
2023-01-31T19:45:48.210Z,11.67
2023-01-31T19:48:16.394Z,10.00
2023-01-31T19:50:44.528Z,9.83
2023-01-31T19:53:12.912Z,11.63
2023-01-31T19:55:42.404Z,12.60
2023-01-31T19:58:10.649Z,15.73
2023-01-31T20:00:38.817Z,14.60
2023-01-31T20:03:06.962Z,15.33
2023-01-31T20:05:35.150Z,17.83
2023-01-31T20:08:03.289Z,18.40
2023-01-31T20:10:31.764Z,16.90
2023-01-31T20:13:02.480Z,25.30
2023-01-31T20:15:30.666Z,20.57
2023-01-31T20:17:59.178Z,21.60
2023-01-31T20:20:27.689Z,26.17
2023-01-31T20:22:55.848Z,22.60
2023-01-31T20:25:24.002Z,21.70
2023-01-31T20:27:52.119Z,28.33
2023-01-31T20:30:23.360Z,29.60
2023-01-31T20:32:51.669Z,27.00
2023-01-31T20:35:20.075Z,25.23
2023-01-31T20:37:48.271Z,23.67
2023-01-31T20:40:16.517Z,24.37
2023-01-31T20:42:44.691Z,21.33
2023-01-31T20:45:13.053Z,25.93
2023-01-31T20:47:42.555Z,23.40
2023-01-31T20:50:11.420Z,23.70
2023-01-31T20:52:39.564Z,20.83
2023-01-31T20:55:08.361Z,27.93
2023-01-31T20:57:36.508Z,25.23
2023-01-31T21:00:04.983Z,20.73
2023-01-31T21:02:33.181Z,26.60
2023-01-31T21:05:02.732Z,32.50
2023-01-31T21:07:30.898Z,22.20
2023-01-31T21:09:59.027Z,30.47
2023-01-31T21:12:27.191Z,24.63
2023-01-31T21:14:55.638Z,25.67
2023-01-31T21:17:37.788Z,20.97
2023-01-31T21:20:10.693Z,24.63
2023-01-31T21:22:38.829Z,26.00
2023-01-31T21:25:07.470Z,23.20
2023-01-31T21:27:35.693Z,24.93
2023-01-31T21:30:03.902Z,27.07
2023-01-31T21:32:32.066Z,31.17
2023-01-31T21:35:01.119Z,26.77
2023-01-31T21:37:31.556Z,31.37
2023-01-31T21:39:59.708Z,26.30
2023-01-31T21:42:26.889Z,23.73
2023-01-31T21:44:55.060Z,26.30
2023-01-31T21:47:23.230Z,23.37
2023-01-31T21:49:51.387Z,26.60
2023-01-31T21:52:19.548Z,29.83
2023-01-31T21:54:49.058Z,26.03
2023-01-31T21:57:17.213Z,27.93
2023-01-31T21:59:46.748Z,26.93
2023-01-31T22:02:14.915Z,29.43
2023-01-31T22:04:43.081Z,24.40
2023-01-31T22:07:11.410Z,24.70
2023-01-31T22:09:39.547Z,26.27
2023-01-31T22:12:09.254Z,26.67
2023-01-31T22:14:37.396Z,28.07
2023-01-31T22:17:05.556Z,25.40
2023-01-31T22:19:34.098Z,31.73
2023-01-31T22:22:02.230Z,30.43
2023-01-31T22:24:30.480Z,23.70
2023-01-31T22:26:58.612Z,25.70
2023-01-31T22:29:28.110Z,26.77
2023-01-31T22:31:56.648Z,28.97
2023-01-31T22:34:24.850Z,33.10
2023-01-31T22:36:52.988Z,30.03
2023-01-31T22:39:21.148Z,26.13
2023-01-31T22:41:49.309Z,28.23
2023-01-31T22:44:17.502Z,27.63
2023-01-31T22:46:47.111Z,29.50
2023-01-31T22:49:15.253Z,26.40
2023-01-31T22:51:43.425Z,25.60
2023-01-31T22:54:11.730Z,26.23
2023-01-31T22:56:39.901Z,29.17
2023-01-31T22:59:09.444Z,22.70
2023-01-31T23:01:38.408Z,25.10
2023-01-31T23:04:09.385Z,19.70
2023-01-31T23:06:38.430Z,25.13
2023-01-31T23:09:06.997Z,17.27
2023-01-31T23:11:35.129Z,26.00
2023-01-31T23:14:03.365Z,23.70
2023-01-31T23:16:45.471Z,17.33
2023-01-31T23:19:15.971Z,18.63
2023-01-31T23:21:44.853Z,19.83
2023-01-31T23:24:14.313Z,23.40
2023-01-31T23:26:42.637Z,19.50
2023-01-31T23:29:10.867Z,20.23
2023-01-31T23:31:39.144Z,20.40
2023-01-31T23:34:07.760Z,28.70
2023-01-31T23:36:37.525Z,22.70
2023-01-31T23:39:05.883Z,24.70
2023-01-31T23:41:34.109Z,29.67
2023-01-31T23:44:02.300Z,23.93
2023-01-31T23:46:30.481Z,28.47
2023-01-31T23:48:58.754Z,24.00
2023-01-31T23:51:28.407Z,33.63
2023-01-31T23:53:57.908Z,28.17
2023-01-31T23:56:26.433Z,25.00
2023-01-31T23:58:54.815Z,31.07
